sensor_id;sensor_type;location;lat;lon;timestamp;temperature;humidity
80228;DHT22;69539;42.138;24.742;2024-01-15T00:01:37;20.90;20.50
80228;DHT22;69539;42.138;24.742;2024-01-15T00:04:02;20.90;20.50
80228;DHT22;69539;42.138;24.742;2024-01-15T00:06:28;20.90;20.50
80228;DHT22;69539;42.138;24.742;2024-01-15T00:08:54;20.90;20.50
80228;DHT22;69539;42.138;24.742;2024-01-15T00:11:20;20.90;20.50
80228;DHT22;69539;42.138;24.742;2024-01-15T00:13:45;20.90;20.50
80228;DHT22;69539;42.138;24.742;2024-01-15T00:16:11;20.90;20.50
80228;DHT22;69539;42.138;24.742;2024-01-15T00:18:37;20.90;20.50
80228;DHT22;69539;42.138;24.742;2024-01-15T00:21:03;20.90;20.50
80228;DHT22;69539;42.138;24.742;2024-01-15T00:23:29;20.90;20.50
80228;DHT22;69539;42.138;24.742;2024-01-15T00:25:55;20.90;20.50
80228;DHT22;69539;42.138;24.742;2024-01-15T00:28:20;20.90;20.60
80228;DHT22;69539;42.138;24.742;2024-01-15T00:30:46;20.90;20.50
80228;DHT22;69539;42.138;24.742;2024-01-15T00:33:12;20.90;20.50
80228;DHT22;69539;42.138;24.742;2024-01-15T00:35:40;20.90;20.50
80228;DHT22;69539;42.138;24.742;2024-01-15T00:38:07;20.90;20.50
80228;DHT22;69539;42.138;24.742;2024-01-15T00:40:33;20.90;20.60
80228;DHT22;69539;42.138;24.742;2024-01-15T00:42:58;20.90;20.50
80228;DHT22;69539;42.138;24.742;2024-01-15T00:45:24;20.90;20.50
80228;DHT22;69539;42.138;24.742;2024-01-15T00:47:50;20.90;20.50
80228;DHT22;69539;42.138;24.742;2024-01-15T00:50:16;20.90;20.50
80228;DHT22;69539;42.138;24.742;2024-01-15T00:52:42;20.90;20.50
80228;DHT22;69539;42.138;24.742;2024-01-15T00:55:08;20.90;20.50
80228;DHT22;69539;42.138;24.742;2024-01-15T00:57:34;20.90;20.50
80228;DHT22;69539;42.138;24.742;2024-01-15T00:59:59;20.90;20.50
80228;DHT22;69539;42.138;24.742;2024-01-15T01:02:26;20.90;20.50
80228;DHT22;69539;42.138;24.742;2024-01-15T01:04:51;20.90;20.60
80228;DHT22;69539;42.138;24.742;2024-01-15T01:07:17;20.90;20.50
80228;DHT22;69539;42.138;24.742;2024-01-15T01:09:43;20.90;20.50
80228;DHT22;69539;42.138;24.742;2024-01-15T01:12:09;20.90;20.50
80228;DHT22;69539;42.138;24.742;2024-01-15T01:14:35;20.90;20.50
80228;DHT22;69539;42.138;24.742;2024-01-15T01:17:00;20.90;20.50
80228;DHT22;69539;42.138;24.742;2024-01-15T01:19:26;20.90;20.60
80228;DHT22;69539;42.138;24.742;2024-01-15T01:21:52;20.90;20.50
80228;DHT22;69539;42.138;24.742;2024-01-15T01:24:17;20.90;20.50
80228;DHT22;69539;42.138;24.742;2024-01-15T01:26:43;20.90;20.50
80228;DHT22;69539;42.138;24.742;2024-01-15T01:29:12;20.90;20.50
80228;DHT22;69539;42.138;24.742;2024-01-15T01:31:43;20.90;20.50
80228;DHT22;69539;42.138;24.742;2024-01-15T01:34:09;20.90;21.40
80228;DHT22;69539;42.138;24.742;2024-01-15T01:36:35;20.90;20.50
80228;DHT22;69539;42.138;24.742;2024-01-15T01:39:00;20.90;20.50
80228;DHT22;69539;42.138;24.742;2024-01-15T01:41:26;20.80;20.50
80228;DHT22;69539;42.138;24.742;2024-01-15T01:43:52;20.90;20.50
80228;DHT22;69539;42.138;24.742;2024-01-15T01:46:17;20.90;20.50
80228;DHT22;69539;42.138;24.742;2024-01-15T01:48:43;20.90;20.50
80228;DHT22;69539;42.138;24.742;2024-01-15T01:51:09;20.90;20.50
80228;DHT22;69539;42.138;24.742;2024-01-15T01:53:37;20.90;20.50
80228;DHT22;69539;42.138;24.742;2024-01-15T01:56:04;20.90;20.50
80228;DHT22;69539;42.138;24.742;2024-01-15T01:58:31;20.90;20.50
80228;DHT22;69539;42.138;24.742;2024-01-15T02:00:58;20.80;20.50
80228;DHT22;69539;42.138;24.742;2024-01-15T02:03:25;20.90;20.50
80228;DHT22;69539;42.138;24.742;2024-01-15T02:05:51;20.90;20.50
80228;DHT22;69539;42.138;24.742;2024-01-15T02:08:18;20.90;20.50
80228;DHT22;69539;42.138;24.742;2024-01-15T02:10:44;20.90;20.50
80228;DHT22;69539;42.138;24.742;2024-01-15T02:13:09;20.90;20.50
80228;DHT22;69539;42.138;24.742;2024-01-15T02:15:36;20.90;20.50
80228;DHT22;69539;42.138;24.742;2024-01-15T02:18:04;20.90;20.60
80228;DHT22;69539;42.138;24.742;2024-01-15T02:20:31;20.90;20.60
80228;DHT22;69539;42.138;24.742;2024-01-15T02:23:09;20.90;20.50
80228;DHT22;69539;42.138;24.742;2024-01-15T02:25:45;20.90;21.40
80228;DHT22;69539;42.138;24.742;2024-01-15T02:28:16;20.80;20.50
80228;DHT22;69539;42.138;24.742;2024-01-15T02:30:43;20.90;20.60
80228;DHT22;69539;42.138;24.742;2024-01-15T02:33:09;20.90;20.60
80228;DHT22;69539;42.138;24.742;2024-01-15T02:35:35;20.90;20.50
80228;DHT22;69539;42.138;24.742;2024-01-15T02:38:05;20.80;20.50
80228;DHT22;69539;42.138;24.742;2024-01-15T02:40:31;20.80;20.50
80228;DHT22;69539;42.138;24.742;2024-01-15T02:42:56;20.90;20.50
80228;DHT22;69539;42.138;24.742;2024-01-15T02:45:23;20.80;20.50
80228;DHT22;69539;42.138;24.742;2024-01-15T02:47:49;20.80;20.40
80228;DHT22;69539;42.138;24.742;2024-01-15T02:50:15;20.90;20.40
80228;DHT22;69539;42.138;24.742;2024-01-15T02:52:41;20.90;20.50
80228;DHT22;69539;42.138;24.742;2024-01-15T02:55:07;20.90;20.50
80228;DHT22;69539;42.138;24.742;2024-01-15T02:57:33;20.90;20.50
80228;DHT22;69539;42.138;24.742;2024-01-15T02:59:59;20.90;20.50
80228;DHT22;69539;42.138;24.742;2024-01-15T03:02:26;20.90;20.50
80228;DHT22;69539;42.138;24.742;2024-01-15T03:04:51;20.90;20.50
80228;DHT22;69539;42.138;24.742;2024-01-15T03:07:17;20.90;20.50
80228;DHT22;69539;42.138;24.742;2024-01-15T03:09:43;20.90;20.40
80228;DHT22;69539;42.138;24.742;2024-01-15T03:12:09;20.90;20.40
80228;DHT22;69539;42.138;24.742;2024-01-15T03:14:35;20.80;20.40
80228;DHT22;69539;42.138;24.742;2024-01-15T03:17:01;20.80;20.40
80228;DHT22;69539;42.138;24.742;2024-01-15T03:19:27;20.80;20.40
80228;DHT22;69539;42.138;24.742;2024-01-15T03:21:52;20.90;20.50
80228;DHT22;69539;42.138;24.742;2024-01-15T03:24:18;20.80;20.40
80228;DHT22;69539;42.138;24.742;2024-01-15T03:26:44;20.80;20.40
80228;DHT22;69539;42.138;24.742;2024-01-15T03:29:10;20.80;20.40
80228;DHT22;69539;42.138;24.742;2024-01-15T03:31:35;20.80;20.40
80228;DHT22;69539;42.138;24.742;2024-01-15T03:34:01;20.90;20.40
80228;DHT22;69539;42.138;24.742;2024-01-15T03:36:27;20.90;20.40
80228;DHT22;69539;42.138;24.742;2024-01-15T03:38:52;20.90;20.50
80228;DHT22;69539;42.138;24.742;2024-01-15T03:41:18;20.90;20.40
80228;DHT22;69539;42.138;24.742;2024-01-15T03:43:43;20.80;20.40
80228;DHT22;69539;42.138;24.742;2024-01-15T03:46:09;20.80;20.40
80228;DHT22;69539;42.138;24.742;2024-01-15T03:48:35;20.80;20.40
80228;DHT22;69539;42.138;24.742;2024-01-15T03:51:00;20.80;20.40
80228;DHT22;69539;42.138;24.742;2024-01-15T03:53:27;20.80;20.40
80228;DHT22;69539;42.138;24.742;2024-01-15T03:55:53;20.90;20.40
80228;DHT22;69539;42.138;24.742;2024-01-15T03:58:18;20.90;20.40
80228;DHT22;69539;42.138;24.742;2024-01-15T04:00:44;20.80;20.40
80228;DHT22;69539;42.138;24.742;2024-01-15T04:03:10;20.80;20.40
80228;DHT22;69539;42.138;24.742;2024-01-15T04:05:35;20.80;20.30
80228;DHT22;69539;42.138;24.742;2024-01-15T04:08:01;20.80;20.30
80228;DHT22;69539;42.138;24.742;2024-01-15T04:10:26;20.90;20.30
80228;DHT22;69539;42.138;24.742;2024-01-15T04:12:52;20.80;20.30
80228;DHT22;69539;42.138;24.742;2024-01-15T04:15:18;20.80;20.20
80228;DHT22;69539;42.138;24.742;2024-01-15T04:17:44;20.90;21.20
80228;DHT22;69539;42.138;24.742;2024-01-15T04:20:10;20.90;20.30
80228;DHT22;69539;42.138;24.742;2024-01-15T04:22:36;20.90;20.30
80228;DHT22;69539;42.138;24.742;2024-01-15T04:25:02;20.90;20.30
80228;DHT22;69539;42.138;24.742;2024-01-15T04:27:28;20.90;20.30
80228;DHT22;69539;42.138;24.742;2024-01-15T04:29:54;20.80;20.30
80228;DHT22;69539;42.138;24.742;2024-01-15T04:32:20;20.90;20.30
80228;DHT22;69539;42.138;24.742;2024-01-15T04:34:45;20.90;20.40
80228;DHT22;69539;42.138;24.742;2024-01-15T04:37:11;20.90;20.40
80228;DHT22;69539;42.138;24.742;2024-01-15T04:39:38;20.90;20.50
80228;DHT22;69539;42.138;24.742;2024-01-15T04:42:04;20.90;20.40
80228;DHT22;69539;42.138;24.742;2024-01-15T04:44:30;20.90;20.40
80228;DHT22;69539;42.138;24.742;2024-01-15T04:46:55;20.90;20.80
80228;DHT22;69539;42.138;24.742;2024-01-15T04:49:21;20.90;19.80
80228;DHT22;69539;42.138;24.742;2024-01-15T04:51:47;20.40;19.00
80228;DHT22;69539;42.138;24.742;2024-01-15T04:54:12;20.10;19.00
80228;DHT22;69539;42.138;24.742;2024-01-15T04:56:43;19.90;19.10
80228;DHT22;69539;42.138;24.742;2024-01-15T04:59:08;19.90;19.10
80228;DHT22;69539;42.138;24.742;2024-01-15T05:01:34;19.90;19.20
80228;DHT22;69539;42.138;24.742;2024-01-15T05:04:00;19.80;19.10
80228;DHT22;69539;42.138;24.742;2024-01-15T05:06:26;19.80;19.00
80228;DHT22;69539;42.138;24.742;2024-01-15T05:08:51;19.70;18.90
80228;DHT22;69539;42.138;24.742;2024-01-15T05:11:17;19.60;18.90
80228;DHT22;69539;42.138;24.742;2024-01-15T05:13:43;19.50;18.90
80228;DHT22;69539;42.138;24.742;2024-01-15T05:16:09;19.50;18.90
80228;DHT22;69539;42.138;24.742;2024-01-15T05:18:34;19.50;18.90
80228;DHT22;69539;42.138;24.742;2024-01-15T05:21:00;19.40;18.90
80228;DHT22;69539;42.138;24.742;2024-01-15T05:23:25;19.30;18.90
80228;DHT22;69539;42.138;24.742;2024-01-15T05:25:51;19.30;18.80
80228;DHT22;69539;42.138;24.742;2024-01-15T05:28:17;19.00;18.90
80228;DHT22;69539;42.138;24.742;2024-01-15T05:30:42;18.70;19.00
80228;DHT22;69539;42.138;24.742;2024-01-15T05:33:08;18.70;19.10
80228;DHT22;69539;42.138;24.742;2024-01-15T05:35:34;18.90;19.00
80228;DHT22;69539;42.138;24.742;2024-01-15T05:38:00;18.50;19.10
80228;DHT22;69539;42.138;24.742;2024-01-15T05:40:26;18.60;19.20
80228;DHT22;69539;42.138;24.742;2024-01-15T05:42:51;18.70;19.10
80228;DHT22;69539;42.138;24.742;2024-01-15T05:45:17;18.70;19.10
80228;DHT22;69539;42.138;24.742;2024-01-15T05:47:42;18.80;18.90
80228;DHT22;69539;42.138;24.742;2024-01-15T05:50:09;18.80;18.90
80228;DHT22;69539;42.138;24.742;2024-01-15T05:52:36;18.80;19.60
80228;DHT22;69539;42.138;24.742;2024-01-15T05:55:03;18.60;21.80
80228;DHT22;69539;42.138;24.742;2024-01-15T05:57:28;18.60;21.50
80228;DHT22;69539;42.138;24.742;2024-01-15T05:59:54;18.40;20.50
80228;DHT22;69539;42.138;24.742;2024-01-15T06:02:20;18.40;20.20
80228;DHT22;69539;42.138;24.742;2024-01-15T06:04:45;18.40;20.30
80228;DHT22;69539;42.138;24.742;2024-01-15T06:07:11;18.60;20.70
80228;DHT22;69539;42.138;24.742;2024-01-15T06:09:37;18.80;20.90
80228;DHT22;69539;42.138;24.742;2024-01-15T06:12:04;19.10;20.80
80228;DHT22;69539;42.138;24.742;2024-01-15T06:14:30;19.40;20.60
80228;DHT22;69539;42.138;24.742;2024-01-15T06:16:55;19.70;21.50
80228;DHT22;69539;42.138;24.742;2024-01-15T06:19:21;20.00;20.50
80228;DHT22;69539;42.138;24.742;2024-01-15T06:21:47;20.20;20.30
80228;DHT22;69539;42.138;24.742;2024-01-15T06:24:12;20.40;20.20
80228;DHT22;69539;42.138;24.742;2024-01-15T06:26:39;20.50;20.10
80228;DHT22;69539;42.138;24.742;2024-01-15T06:29:04;20.60;20.10
80228;DHT22;69539;42.138;24.742;2024-01-15T06:31:30;20.80;20.00
80228;DHT22;69539;42.138;24.742;2024-01-15T06:33:56;20.80;20.00
80228;DHT22;69539;42.138;24.742;2024-01-15T06:36:21;20.90;20.00
80228;DHT22;69539;42.138;24.742;2024-01-15T06:38:47;21.00;20.00
80228;DHT22;69539;42.138;24.742;2024-01-15T06:41:13;21.20;20.00
80228;DHT22;69539;42.138;24.742;2024-01-15T06:43:39;21.20;20.00
80228;DHT22;69539;42.138;24.742;2024-01-15T06:46:04;21.30;20.00
80228;DHT22;69539;42.138;24.742;2024-01-15T06:48:30;21.30;20.00
80228;DHT22;69539;42.138;24.742;2024-01-15T06:50:56;21.40;20.10
80228;DHT22;69539;42.138;24.742;2024-01-15T06:53:21;21.40;20.10
80228;DHT22;69539;42.138;24.742;2024-01-15T06:55:48;21.50;20.10
80228;DHT22;69539;42.138;24.742;2024-01-15T06:58:14;21.50;20.10
80228;DHT22;69539;42.138;24.742;2024-01-15T07:00:40;21.60;20.10
80228;DHT22;69539;42.138;24.742;2024-01-15T07:03:06;21.60;20.10
80228;DHT22;69539;42.138;24.742;2024-01-15T07:05:31;21.70;20.10
80228;DHT22;69539;42.138;24.742;2024-01-15T07:07:57;21.80;20.10
80228;DHT22;69539;42.138;24.742;2024-01-15T07:10:23;21.90;20.30
80228;DHT22;69539;42.138;24.742;2024-01-15T07:12:48;21.90;20.40
80228;DHT22;69539;42.138;24.742;2024-01-15T07:15:15;22.00;20.60
80228;DHT22;69539;42.138;24.742;2024-01-15T07:17:41;22.00;20.50
80228;DHT22;69539;42.138;24.742;2024-01-15T07:20:08;22.10;20.60
80228;DHT22;69539;42.138;24.742;2024-01-15T07:22:35;22.10;20.70
80228;DHT22;69539;42.138;24.742;2024-01-15T07:25:02;22.10;20.90
80228;DHT22;69539;42.138;24.742;2024-01-15T07:27:27;22.20;20.90
80228;DHT22;69539;42.138;24.742;2024-01-15T07:29:53;22.30;20.90
80228;DHT22;69539;42.138;24.742;2024-01-15T07:32:19;22.30;21.20
80228;DHT22;69539;42.138;24.742;2024-01-15T07:34:46;22.40;21.70
80228;DHT22;69539;42.138;24.742;2024-01-15T07:37:11;22.40;21.20
80228;DHT22;69539;42.138;24.742;2024-01-15T07:39:37;22.50;21.30
80228;DHT22;69539;42.138;24.742;2024-01-15T07:42:03;22.50;21.50
80228;DHT22;69539;42.138;24.742;2024-01-15T07:44:29;22.60;21.40
80228;DHT22;69539;42.138;24.742;2024-01-15T07:46:55;22.60;21.30
80228;DHT22;69539;42.138;24.742;2024-01-15T07:49:20;22.60;21.40
80228;DHT22;69539;42.138;24.742;2024-01-15T07:51:46;22.70;22.40
80228;DHT22;69539;42.138;24.742;2024-01-15T07:54:12;22.70;21.40
80228;DHT22;69539;42.138;24.742;2024-01-15T07:56:57;22.80;21.60
80228;DHT22;69539;42.138;24.742;2024-01-15T07:59:23;22.80;21.50
80228;DHT22;69539;42.138;24.742;2024-01-15T08:01:50;22.80;21.60
80228;DHT22;69539;42.138;24.742;2024-01-15T08:04:21;22.90;21.60
80228;DHT22;69539;42.138;24.742;2024-01-15T08:06:47;22.90;21.60
80228;DHT22;69539;42.138;24.742;2024-01-15T08:09:13;22.90;21.50
80228;DHT22;69539;42.138;24.742;2024-01-15T08:11:40;23.00;21.60
80228;DHT22;69539;42.138;24.742;2024-01-15T08:14:07;23.10;21.50
80228;DHT22;69539;42.138;24.742;2024-01-15T08:16:32;23.10;21.70
80228;DHT22;69539;42.138;24.742;2024-01-15T08:18:59;23.10;21.70
80228;DHT22;69539;42.138;24.742;2024-01-15T08:21:24;23.20;21.70
80228;DHT22;69539;42.138;24.742;2024-01-15T08:23:50;23.20;21.90
80228;DHT22;69539;42.138;24.742;2024-01-15T08:26:16;23.20;22.40
80228;DHT22;69539;42.138;24.742;2024-01-15T08:28:42;23.20;21.40
80228;DHT22;69539;42.138;24.742;2024-01-15T08:31:07;23.20;21.30
80228;DHT22;69539;42.138;24.742;2024-01-15T08:33:33;23.30;21.40
80228;DHT22;69539;42.138;24.742;2024-01-15T08:35:59;23.20;21.60
80228;DHT22;69539;42.138;24.742;2024-01-15T08:38:24;23.20;21.80
80228;DHT22;69539;42.138;24.742;2024-01-15T08:40:51;23.20;21.90
80228;DHT22;69539;42.138;24.742;2024-01-15T08:43:18;23.10;21.90
80228;DHT22;69539;42.138;24.742;2024-01-15T08:45:44;23.20;22.20
80228;DHT22;69539;42.138;24.742;2024-01-15T08:48:10;23.20;22.00
80228;DHT22;69539;42.138;24.742;2024-01-15T08:50:36;23.30;22.20
80228;DHT22;69539;42.138;24.742;2024-01-15T08:53:02;23.40;22.10
80228;DHT22;69539;42.138;24.742;2024-01-15T08:55:28;23.50;22.30
80228;DHT22;69539;42.138;24.742;2024-01-15T08:57:54;23.50;22.20
80228;DHT22;69539;42.138;24.742;2024-01-15T09:00:20;23.60;22.30
80228;DHT22;69539;42.138;24.742;2024-01-15T09:02:45;23.60;22.20
80228;DHT22;69539;42.138;24.742;2024-01-15T09:05:11;23.60;22.30
80228;DHT22;69539;42.138;24.742;2024-01-15T09:07:37;23.60;22.40
80228;DHT22;69539;42.138;24.742;2024-01-15T09:10:03;23.60;22.50
80228;DHT22;69539;42.138;24.742;2024-01-15T09:12:28;23.60;22.40
80228;DHT22;69539;42.138;24.742;2024-01-15T09:14:55;23.60;22.30
80228;DHT22;69539;42.138;24.742;2024-01-15T09:17:21;23.60;22.40
80228;DHT22;69539;42.138;24.742;2024-01-15T09:19:51;23.70;22.40
80228;DHT22;69539;42.138;24.742;2024-01-15T09:22:17;23.60;22.50
80228;DHT22;69539;42.138;24.742;2024-01-15T09:24:46;23.70;22.60
80228;DHT22;69539;42.138;24.742;2024-01-15T09:27:11;23.70;22.90
80228;DHT22;69539;42.138;24.742;2024-01-15T09:29:37;23.70;22.70
80228;DHT22;69539;42.138;24.742;2024-01-15T09:32:05;23.80;24.40
80228;DHT22;69539;42.138;24.742;2024-01-15T09:34:33;23.80;23.80
80228;DHT22;69539;42.138;24.742;2024-01-15T09:36:58;23.90;24.00
80228;DHT22;69539;42.138;24.742;2024-01-15T09:39:26;23.90;23.10
80228;DHT22;69539;42.138;24.742;2024-01-15T09:41:53;23.90;22.80
80228;DHT22;69539;42.138;24.742;2024-01-15T09:44:19;23.90;23.10
80228;DHT22;69539;42.138;24.742;2024-01-15T09:46:45;23.90;22.90
80228;DHT22;69539;42.138;24.742;2024-01-15T09:49:12;23.90;23.00
80228;DHT22;69539;42.138;24.742;2024-01-15T09:51:39;23.90;22.80
80228;DHT22;69539;42.138;24.742;2024-01-15T09:54:05;23.90;23.00
80228;DHT22;69539;42.138;24.742;2024-01-15T09:56:31;23.90;22.90
80228;DHT22;69539;42.138;24.742;2024-01-15T09:58:57;24.00;22.90
80228;DHT22;69539;42.138;24.742;2024-01-15T10:01:23;24.00;23.00
80228;DHT22;69539;42.138;24.742;2024-01-15T10:03:50;24.00;23.00
80228;DHT22;69539;42.138;24.742;2024-01-15T10:06:16;24.00;22.90
80228;DHT22;69539;42.138;24.742;2024-01-15T10:08:46;23.90;22.90
80228;DHT22;69539;42.138;24.742;2024-01-15T10:11:13;23.90;22.90
80228;DHT22;69539;42.138;24.742;2024-01-15T10:13:39;24.00;22.70
80228;DHT22;69539;42.138;24.742;2024-01-15T10:16:05;24.00;23.50
80228;DHT22;69539;42.138;24.742;2024-01-15T10:18:32;24.10;22.80
80228;DHT22;69539;42.138;24.742;2024-01-15T10:20:58;24.10;22.70
80228;DHT22;69539;42.138;24.742;2024-01-15T10:23:24;24.20;22.80
80228;DHT22;69539;42.138;24.742;2024-01-15T10:25:50;24.20;22.70
80228;DHT22;69539;42.138;24.742;2024-01-15T10:28:19;24.20;22.60
80228;DHT22;69539;42.138;24.742;2024-01-15T10:30:45;24.30;23.10
80228;DHT22;69539;42.138;24.742;2024-01-15T10:33:11;24.30;23.30
80228;DHT22;69539;42.138;24.742;2024-01-15T10:35:38;24.40;23.60
80228;DHT22;69539;42.138;24.742;2024-01-15T10:38:05;24.40;23.00
80228;DHT22;69539;42.138;24.742;2024-01-15T10:40:31;24.40;23.00
80228;DHT22;69539;42.138;24.742;2024-01-15T10:42:57;24.40;22.90
80228;DHT22;69539;42.138;24.742;2024-01-15T10:45:23;24.40;22.80
80228;DHT22;69539;42.138;24.742;2024-01-15T10:47:51;24.30;22.70
80228;DHT22;69539;42.138;24.742;2024-01-15T10:50:17;24.20;22.60
80228;DHT22;69539;42.138;24.742;2024-01-15T10:52:43;24.20;22.60
80228;DHT22;69539;42.138;24.742;2024-01-15T10:55:09;24.10;22.70
80228;DHT22;69539;42.138;24.742;2024-01-15T10:57:36;24.10;22.70
80228;DHT22;69539;42.138;24.742;2024-01-15T11:00:03;24.10;22.70
80228;DHT22;69539;42.138;24.742;2024-01-15T11:02:35;24.10;22.60
80228;DHT22;69539;42.138;24.742;2024-01-15T11:05:01;24.00;23.00
80228;DHT22;69539;42.138;24.742;2024-01-15T11:07:27;24.00;23.00
80228;DHT22;69539;42.138;24.742;2024-01-15T11:09:52;23.90;23.00
80228;DHT22;69539;42.138;24.742;2024-01-15T11:12:18;23.90;22.90
80228;DHT22;69539;42.138;24.742;2024-01-15T11:14:47;23.90;23.00
80228;DHT22;69539;42.138;24.742;2024-01-15T11:17:15;23.80;22.90
80228;DHT22;69539;42.138;24.742;2024-01-15T11:19:44;23.90;23.00
80228;DHT22;69539;42.138;24.742;2024-01-15T11:25:15;23.70;23.30
80228;DHT22;69539;42.138;24.742;2024-01-15T11:27:52;23.80;23.20
80228;DHT22;69539;42.138;24.742;2024-01-15T11:30:19;23.70;23.10
80228;DHT22;69539;42.138;24.742;2024-01-15T11:32:46;23.70;23.00
80228;DHT22;69539;42.138;24.742;2024-01-15T11:35:13;23.70;23.10
80228;DHT22;69539;42.138;24.742;2024-01-15T11:40:18;23.60;23.00
80228;DHT22;69539;42.138;24.742;2024-01-15T11:42:45;23.60;23.00
80228;DHT22;69539;42.138;24.742;2024-01-15T11:45:11;23.60;23.00
80228;DHT22;69539;42.138;24.742;2024-01-15T11:50:07;23.50;23.20
80228;DHT22;69539;42.138;24.742;2024-01-15T11:52:37;23.60;23.00
80228;DHT22;69539;42.138;24.742;2024-01-15T11:57:52;23.50;23.30
80228;DHT22;69539;42.138;24.742;2024-01-15T12:00:20;23.50;23.00
80228;DHT22;69539;42.138;24.742;2024-01-15T12:02:48;23.50;23.00
80228;DHT22;69539;42.138;24.742;2024-01-15T12:05:16;23.50;23.40
80228;DHT22;69539;42.138;24.742;2024-01-15T12:07:43;23.50;23.20
80228;DHT22;69539;42.138;24.742;2024-01-15T12:10:16;23.50;23.40
80228;DHT22;69539;42.138;24.742;2024-01-15T12:13:08;23.50;23.70
80228;DHT22;69539;42.138;24.742;2024-01-15T12:15:35;23.40;23.20
80228;DHT22;69539;42.138;24.742;2024-01-15T12:18:01;23.40;23.00
80228;DHT22;69539;42.138;24.742;2024-01-15T12:20:31;23.40;22.80
80228;DHT22;69539;42.138;24.742;2024-01-15T12:22:57;23.40;22.70
80228;DHT22;69539;42.138;24.742;2024-01-15T12:25:24;23.40;22.20
80228;DHT22;69539;42.138;24.742;2024-01-15T12:27:50;23.40;22.10
80228;DHT22;69539;42.138;24.742;2024-01-15T12:30:16;23.30;21.70
80228;DHT22;69539;42.138;24.742;2024-01-15T12:32:42;23.30;21.60
80228;DHT22;69539;42.138;24.742;2024-01-15T12:35:10;23.30;21.40
80228;DHT22;69539;42.138;24.742;2024-01-15T12:37:37;23.30;21.40
80228;DHT22;69539;42.138;24.742;2024-01-15T12:40:03;23.40;21.20
80228;DHT22;69539;42.138;24.742;2024-01-15T12:42:41;23.40;21.30
80228;DHT22;69539;42.138;24.742;2024-01-15T12:45:08;23.40;21.20
80228;DHT22;69539;42.138;24.742;2024-01-15T12:47:34;23.30;20.80
80228;DHT22;69539;42.138;24.742;2024-01-15T12:50:01;23.20;20.80
80228;DHT22;69539;42.138;24.742;2024-01-15T12:52:27;23.10;21.50
80228;DHT22;69539;42.138;24.742;2024-01-15T12:54:53;23.10;21.60
80228;DHT22;69539;42.138;24.742;2024-01-15T12:57:19;23.10;21.80
80228;DHT22;69539;42.138;24.742;2024-01-15T12:59:45;23.00;21.80
80228;DHT22;69539;42.138;24.742;2024-01-15T13:02:13;23.00;21.90
80228;DHT22;69539;42.138;24.742;2024-01-15T13:04:39;23.00;21.90
80228;DHT22;69539;42.138;24.742;2024-01-15T13:07:06;23.00;22.00
80228;DHT22;69539;42.138;24.742;2024-01-15T13:09:35;23.00;22.00
80228;DHT22;69539;42.138;24.742;2024-01-15T13:12:04;23.00;22.10
80228;DHT22;69539;42.138;24.742;2024-01-15T13:14:31;23.00;22.10
80228;DHT22;69539;42.138;24.742;2024-01-15T13:16:57;23.00;22.20
80228;DHT22;69539;42.138;24.742;2024-01-15T13:19:24;23.00;22.30
80228;DHT22;69539;42.138;24.742;2024-01-15T13:21:51;23.00;22.40
80228;DHT22;69539;42.138;24.742;2024-01-15T13:24:17;23.00;22.40
80228;DHT22;69539;42.138;24.742;2024-01-15T13:26:43;23.00;22.40
80228;DHT22;69539;42.138;24.742;2024-01-15T13:29:09;23.00;22.40
80228;DHT22;69539;42.138;24.742;2024-01-15T13:31:34;23.00;22.50
80228;DHT22;69539;42.138;24.742;2024-01-15T13:34:00;23.00;22.50
80228;DHT22;69539;42.138;24.742;2024-01-15T13:36:26;23.00;22.50
80228;DHT22;69539;42.138;24.742;2024-01-15T13:38:52;23.00;22.50
80228;DHT22;69539;42.138;24.742;2024-01-15T13:41:19;23.00;22.60
80228;DHT22;69539;42.138;24.742;2024-01-15T13:43:51;23.00;22.70
80228;DHT22;69539;42.138;24.742;2024-01-15T13:46:24;23.00;22.70
80228;DHT22;69539;42.138;24.742;2024-01-15T13:48:50;23.00;22.70
80228;DHT22;69539;42.138;24.742;2024-01-15T13:51:15;23.00;22.80
80228;DHT22;69539;42.138;24.742;2024-01-15T13:53:41;23.00;22.90
80228;DHT22;69539;42.138;24.742;2024-01-15T13:56:07;23.00;23.00
80228;DHT22;69539;42.138;24.742;2024-01-15T13:58:33;23.00;23.10
80228;DHT22;69539;42.138;24.742;2024-01-15T14:01:00;23.00;23.10
80228;DHT22;69539;42.138;24.742;2024-01-15T14:03:26;23.00;23.20
80228;DHT22;69539;42.138;24.742;2024-01-15T14:05:52;23.00;23.20
80228;DHT22;69539;42.138;24.742;2024-01-15T14:08:18;23.00;23.20
80228;DHT22;69539;42.138;24.742;2024-01-15T14:10:43;23.10;23.30
80228;DHT22;69539;42.138;24.742;2024-01-15T14:13:09;23.10;23.40
80228;DHT22;69539;42.138;24.742;2024-01-15T14:15:35;23.00;24.10
80228;DHT22;69539;42.138;24.742;2024-01-15T14:18:00;23.10;23.60
80228;DHT22;69539;42.138;24.742;2024-01-15T14:20:26;23.10;23.40
80228;DHT22;69539;42.138;24.742;2024-01-15T14:22:53;23.10;23.60
80228;DHT22;69539;42.138;24.742;2024-01-15T14:25:19;23.10;23.60
80228;DHT22;69539;42.138;24.742;2024-01-15T14:27:45;23.10;23.70
80228;DHT22;69539;42.138;24.742;2024-01-15T14:30:11;23.20;23.70
80228;DHT22;69539;42.138;24.742;2024-01-15T14:32:38;23.10;23.60
80228;DHT22;69539;42.138;24.742;2024-01-15T14:35:05;23.10;23.70
80228;DHT22;69539;42.138;24.742;2024-01-15T14:37:31;23.10;23.70
80228;DHT22;69539;42.138;24.742;2024-01-15T14:39:57;23.10;23.60
80228;DHT22;69539;42.138;24.742;2024-01-15T14:42:22;23.10;23.60
80228;DHT22;69539;42.138;24.742;2024-01-15T14:44:50;23.00;23.70
80228;DHT22;69539;42.138;24.742;2024-01-15T14:47:16;23.00;23.70
80228;DHT22;69539;42.138;24.742;2024-01-15T14:49:41;23.00;23.70
80228;DHT22;69539;42.138;24.742;2024-01-15T14:52:07;23.00;23.60
80228;DHT22;69539;42.138;24.742;2024-01-15T14:54:33;23.00;23.20
80228;DHT22;69539;42.138;24.742;2024-01-15T14:56:59;22.90;23.10
80228;DHT22;69539;42.138;24.742;2024-01-15T14:59:25;22.90;22.80
80228;DHT22;69539;42.138;24.742;2024-01-15T15:01:51;22.90;22.90
80228;DHT22;69539;42.138;24.742;2024-01-15T15:04:16;22.80;23.00
80228;DHT22;69539;42.138;24.742;2024-01-15T15:06:42;22.70;23.10
80228;DHT22;69539;42.138;24.742;2024-01-15T15:09:08;22.80;23.20
80228;DHT22;69539;42.138;24.742;2024-01-15T15:11:37;22.80;23.10
80228;DHT22;69539;42.138;24.742;2024-01-15T15:14:03;22.80;23.10
80228;DHT22;69539;42.138;24.742;2024-01-15T15:16:30;22.70;23.10
80228;DHT22;69539;42.138;24.742;2024-01-15T15:18:56;22.80;23.10
80228;DHT22;69539;42.138;24.742;2024-01-15T15:21:21;22.80;23.10